Upper Stepney, Connecticut
Current Conditions -  °F | °C
As of 6:45 AM on Thursday 18 Dec 2014 (Local Time) from KOXC Reporting Station
Scattered Clouds Scattered Clouds  
Wind Chill: 26°   Ceiling: Unl
Heat Index: 34°   Visibility: 10mi
Dew Point: 23°   Wind: 9mph
Humidity: 65%   Direction: 310°NW
Pressure: 29.86"   Gusts: 18mph
Location:  41.3375°N, 73.2254°W
Report Text: KOXC 181145Z 31008G16KT 280V340 10SM FEW018 SCT090 01/M05 A2986
Loading
Personal Weather Stations






























Interactive Weather Map New forecast layout! Learn more

10-Day Weather Forecast

Advertisements
Track Severe Weather on mobile